Buckner, Kentucky
Current Conditions -  °F | °C
As of 9:53 AM on Wednesday 22 Oct 2014 (Local Time) from KLOU Reporting Station
Clear Clear  
Wind Chill: 47°   Ceiling: Unl
Heat Index: 49°   Visibility: 10mi
Dew Point: 39°   Wind: 5mph
Humidity: 69%   Direction: 20°NNE
Pressure: 30.3"   Gusts: NA
Location:  38.38°N, 85.44°W
Report Text: KLOU 221353Z 02004KT 10SM CLR 09/04 A3030 RMK AO2 SLP260 T00940039
Loading
Personal Weather Stations






























Interactive Weather Map
Tropical Storm Tracking
New forecast layout! Learn more

10-Day Weather Forecast

Advertisements
Track Severe Weather on mobile